createdAt,value
2023-05-05T00:02:18.271Z,6.90
2023-05-05T00:04:46.137Z,6.90
2023-05-05T00:07:14.004Z,6.90
2023-05-05T00:09:41.909Z,6.80
2023-05-05T00:12:09.764Z,6.80
2023-05-05T00:14:37.570Z,6.80
2023-05-05T00:17:06.924Z,6.70
2023-05-05T00:19:34.829Z,6.70
2023-05-05T00:22:02.704Z,6.70
2023-05-05T00:24:30.631Z,6.70
2023-05-05T00:26:58.500Z,6.70
2023-05-05T00:29:26.670Z,6.70
2023-05-05T00:31:54.620Z,6.70
2023-05-05T00:34:23.836Z,6.70
2023-05-05T00:36:51.672Z,6.60
2023-05-05T00:39:19.558Z,6.60
2023-05-05T00:41:47.386Z,6.50
2023-05-05T00:44:15.665Z,6.50
2023-05-05T00:46:44.142Z,6.50
2023-05-05T00:49:12.250Z,6.40
2023-05-05T00:51:41.529Z,6.40
2023-05-05T00:54:09.396Z,6.40
2023-05-05T00:56:37.408Z,6.30
2023-05-05T00:59:05.257Z,6.30
2023-05-05T01:01:33.245Z,6.30
2023-05-05T01:04:01.500Z,6.30
2023-05-05T01:06:38.573Z,6.20
2023-05-05T01:09:12.838Z,6.20
2023-05-05T01:11:45.450Z,6.20
2023-05-05T01:14:15.868Z,6.10
2023-05-05T01:16:50.032Z,6.10
2023-05-05T01:19:31.009Z,6.00
2023-05-05T01:22:01.410Z,6.00
2023-05-05T01:24:53.269Z,6.00
2023-05-05T01:27:31.934Z,6.00
2023-05-05T01:30:11.528Z,5.90
2023-05-05T01:32:42.134Z,5.80
2023-05-05T01:35:13.597Z,5.70
2023-05-05T01:37:44.514Z,5.70
2023-05-05T01:40:13.142Z,5.60
2023-05-05T01:42:43.472Z,5.60
2023-05-05T01:45:12.766Z,5.60
2023-05-05T01:47:43.407Z,5.60
2023-05-05T01:50:12.135Z,5.60
2023-05-05T01:52:41.171Z,5.50
2023-05-05T01:55:10.015Z,5.50
2023-05-05T01:57:38.847Z,5.40
2023-05-05T02:00:09.780Z,5.40
2023-05-05T02:02:38.828Z,5.30
2023-05-05T02:05:08.756Z,5.30
2023-05-05T02:07:37.192Z,5.30
2023-05-05T02:10:05.998Z,5.30
2023-05-05T02:12:35.169Z,5.20
2023-05-05T02:15:03.602Z,5.20
2023-05-05T02:17:31.879Z,5.10
2023-05-05T02:20:00.134Z,5.10
2023-05-05T02:22:29.451Z,5.10
2023-05-05T02:24:57.332Z,5.10
2023-05-05T02:27:25.355Z,5.10
2023-05-05T02:29:55.363Z,5.10
2023-05-05T02:32:24.892Z,5.10
2023-05-05T02:34:53.030Z,5.10
2023-05-05T02:37:22.523Z,5.20
2023-05-05T02:39:58.561Z,5.10
2023-05-05T02:42:27.339Z,5.10
2023-05-05T02:44:56.237Z,5.10
2023-05-05T02:47:24.671Z,5.10
2023-05-05T02:49:52.675Z,5.10
2023-05-05T02:52:20.563Z,5.10
2023-05-05T02:54:48.422Z,5.00
2023-05-05T02:57:19.603Z,5.10
2023-05-05T02:59:51.264Z,5.00
2023-05-05T03:02:22.149Z,5.00
2023-05-05T03:04:51.543Z,5.00
2023-05-05T03:07:24.278Z,5.00
2023-05-05T03:09:56.878Z,4.90
2023-05-05T03:12:29.248Z,4.90
2023-05-05T03:14:59.172Z,4.90
2023-05-05T03:17:28.883Z,4.90
2023-05-05T03:19:57.021Z,4.90
2023-05-05T03:22:27.377Z,4.90
2023-05-05T03:24:55.291Z,4.80
2023-05-05T03:27:23.147Z,4.70
2023-05-05T03:29:52.458Z,4.70
2023-05-05T03:32:20.297Z,4.60
2023-05-05T03:34:48.221Z,4.60
2023-05-05T03:37:16.136Z,4.60
2023-05-05T03:39:43.963Z,4.50
2023-05-05T03:42:11.835Z,4.50
2023-05-05T03:44:39.667Z,4.50
2023-05-05T03:47:08.927Z,4.50
2023-05-05T03:49:37.798Z,4.50
2023-05-05T03:52:06.249Z,4.50
2023-05-05T03:54:34.095Z,4.50
2023-05-05T03:57:02.440Z,4.50
2023-05-05T03:59:30.453Z,4.50
2023-05-05T04:01:58.290Z,4.50
2023-05-05T04:04:27.581Z,4.50
2023-05-05T04:06:55.582Z,4.50
2023-05-05T04:09:23.469Z,4.50
2023-05-05T04:11:51.355Z,4.60
2023-05-05T04:14:19.224Z,4.50
2023-05-05T04:16:47.103Z,4.60
2023-05-05T04:19:14.955Z,4.70
2023-05-05T04:21:44.168Z,4.70
2023-05-05T04:24:12.003Z,4.80
2023-05-05T04:26:39.952Z,4.80
2023-05-05T04:29:09.425Z,4.90
2023-05-05T04:31:37.332Z,4.90
2023-05-05T04:34:05.287Z,5.00
2023-05-05T04:36:33.159Z,5.00
2023-05-05T04:39:02.446Z,5.00
2023-05-05T04:41:30.464Z,5.10
2023-05-05T04:43:58.320Z,5.20
2023-05-05T04:46:26.300Z,5.20
2023-05-05T04:48:54.196Z,5.20
2023-05-05T04:51:22.294Z,5.30
2023-05-05T04:53:50.150Z,5.30
2023-05-05T04:56:19.441Z,5.40
2023-05-05T04:58:47.312Z,5.50
2023-05-05T05:01:15.213Z,5.50
2023-05-05T05:03:43.223Z,5.50
2023-05-05T05:06:11.089Z,5.60
2023-05-05T05:08:38.976Z,5.80
2023-05-05T05:11:06.948Z,5.90
2023-05-05T05:13:36.208Z,6.10
2023-05-05T05:16:04.157Z,6.20
2023-05-05T05:18:32.072Z,6.30
2023-05-05T05:20:59.925Z,6.50
2023-05-05T05:23:27.771Z,6.60
2023-05-05T05:25:55.816Z,6.70
2023-05-05T05:28:23.672Z,6.90
2023-05-05T05:30:53.079Z,7.10
2023-05-05T05:33:20.942Z,7.30
2023-05-05T05:35:48.826Z,7.40
2023-05-05T05:38:17.601Z,7.60
2023-05-05T05:40:45.509Z,7.80
2023-05-05T05:43:13.350Z,8.00
2023-05-05T05:45:41.310Z,8.20
2023-05-05T05:48:10.764Z,8.40
2023-05-05T05:50:38.677Z,8.50
2023-05-05T05:53:06.778Z,8.70
2023-05-05T05:55:34.837Z,8.90
2023-05-05T05:58:02.731Z,9.10
2023-05-05T06:00:30.682Z,9.30
2023-05-05T06:02:58.736Z,9.50
2023-05-05T06:05:27.991Z,9.80
2023-05-05T06:07:55.950Z,10.00
2023-05-05T06:10:27.930Z,10.20
2023-05-05T06:12:56.391Z,10.40
2023-05-05T06:15:25.555Z,10.70
2023-05-05T06:17:53.547Z,10.80
2023-05-05T06:20:21.569Z,10.90
2023-05-05T06:22:50.841Z,11.00
2023-05-05T06:25:18.776Z,11.10
2023-05-05T06:27:46.678Z,11.30
2023-05-05T06:30:15.670Z,11.40
2023-05-05T06:32:43.576Z,11.50
2023-05-05T06:35:11.658Z,11.70
2023-05-05T06:37:39.681Z,11.90
2023-05-05T06:40:10.435Z,12.00
2023-05-05T06:42:38.390Z,12.20
2023-05-05T06:45:06.772Z,12.50
2023-05-05T06:47:34.746Z,12.90
2023-05-05T06:50:02.721Z,13.10
2023-05-05T06:52:30.682Z,13.30
2023-05-05T06:54:58.563Z,13.50
2023-05-05T06:57:27.761Z,13.60
2023-05-05T06:59:55.803Z,13.80
2023-05-05T07:02:25.997Z,14.00
2023-05-05T07:04:55.401Z,14.30
2023-05-05T07:07:23.479Z,14.60
2023-05-05T07:09:51.335Z,14.70
2023-05-05T07:12:19.235Z,14.90
2023-05-05T07:14:48.753Z,15.10
2023-05-05T07:17:16.650Z,15.20
2023-05-05T07:19:44.495Z,15.30
2023-05-05T07:22:12.464Z,15.40
2023-05-05T07:24:40.392Z,15.50
2023-05-05T07:27:08.292Z,15.50
2023-05-05T07:29:36.204Z,15.70
2023-05-05T07:32:05.816Z,15.80
2023-05-05T07:34:34.654Z,15.90
2023-05-05T07:37:03.455Z,16.10
2023-05-05T07:39:31.289Z,16.20
2023-05-05T07:41:59.145Z,16.30
2023-05-05T07:44:27.020Z,16.60
2023-05-05T07:46:54.930Z,16.80
2023-05-05T07:49:24.208Z,17.10
2023-05-05T07:51:52.166Z,17.40
2023-05-05T07:54:20.016Z,17.60
2023-05-05T07:56:47.941Z,17.80
2023-05-05T07:59:15.961Z,18.10
2023-05-05T08:01:43.834Z,18.30
2023-05-05T08:04:11.804Z,18.60
2023-05-05T08:06:41.031Z,18.70
2023-05-05T08:09:08.874Z,18.80
2023-05-05T08:11:36.796Z,19.00
2023-05-05T08:14:04.710Z,19.30
2023-05-05T08:16:32.686Z,19.50
2023-05-05T08:19:00.630Z,19.70
2023-05-05T08:21:28.963Z,19.90
2023-05-05T08:23:58.229Z,20.00
2023-05-05T08:26:26.216Z,20.10
2023-05-05T08:28:55.336Z,20.40
2023-05-05T08:31:23.246Z,20.50
2023-05-05T08:33:51.150Z,20.60
2023-05-05T08:36:19.020Z,20.70
2023-05-05T08:38:47.523Z,20.90
2023-05-05T08:41:18.376Z,20.90
2023-05-05T08:43:47.200Z,21.20
2023-05-05T08:46:15.306Z,21.50
2023-05-05T08:48:43.816Z,21.70
2023-05-05T08:51:14.498Z,21.80
2023-05-05T08:53:46.950Z,22.10
2023-05-05T08:56:16.604Z,22.20
2023-05-05T08:58:44.880Z,22.20
2023-05-05T09:01:14.197Z,22.40
2023-05-05T09:03:42.355Z,22.40
2023-05-05T09:06:10.557Z,22.60
2023-05-05T09:08:38.651Z,22.70
2023-05-05T09:11:07.156Z,22.80
2023-05-05T09:13:36.475Z,23.10
2023-05-05T09:16:04.353Z,23.40
2023-05-05T09:18:32.234Z,23.40
2023-05-05T09:21:00.197Z,23.40
2023-05-05T09:23:28.064Z,23.50
2023-05-05T09:26:06.082Z,23.70
2023-05-05T09:28:34.022Z,24.00
2023-05-05T09:31:15.847Z,24.20
2023-05-05T09:33:44.368Z,24.20
2023-05-05T09:36:12.481Z,24.40
2023-05-05T09:38:40.361Z,24.50
2023-05-05T09:41:08.215Z,24.60
2023-05-05T09:43:50.436Z,24.80
2023-05-05T09:46:19.679Z,24.80
2023-05-05T09:48:47.671Z,25.10
2023-05-05T09:51:15.665Z,25.20
2023-05-05T09:53:43.716Z,25.00
2023-05-05T09:56:11.718Z,25.20
2023-05-05T09:58:39.635Z,25.20
2023-05-05T10:01:22.178Z,25.30
2023-05-05T10:03:52.795Z,25.70
2023-05-05T10:06:22.005Z,25.90
2023-05-05T10:09:01.473Z,26.00
2023-05-05T10:11:29.405Z,26.00
2023-05-05T10:13:57.299Z,26.10
2023-05-05T10:16:27.403Z,26.20
2023-05-05T10:18:57.622Z,26.10
2023-05-05T10:21:26.493Z,26.30
2023-05-05T10:23:58.505Z,26.10
2023-05-05T10:26:27.813Z,26.30
2023-05-05T10:28:56.361Z,26.30
2023-05-05T10:31:28.550Z,26.50
2023-05-05T10:34:01.284Z,26.60
2023-05-05T10:36:30.258Z,26.80
2023-05-05T10:38:58.886Z,27.10
2023-05-05T10:41:27.178Z,27.20
2023-05-05T10:43:57.175Z,27.40
2023-05-05T10:46:25.718Z,27.40
2023-05-05T10:48:58.824Z,27.30
2023-05-05T10:51:40.304Z,27.30
2023-05-05T10:54:11.537Z,27.40
2023-05-05T10:56:41.672Z,27.40
2023-05-05T10:59:24.401Z,27.60
2023-05-05T11:01:53.016Z,27.70
2023-05-05T11:04:21.572Z,27.90
2023-05-05T11:07:08.718Z,27.90
2023-05-05T11:09:42.680Z,27.90
2023-05-05T11:12:13.828Z,27.90
2023-05-05T11:14:42.009Z,28.10
2023-05-05T11:17:39.168Z,28.30
2023-05-05T11:20:09.648Z,28.70
2023-05-05T11:23:05.830Z,29.10
2023-05-05T11:25:51.333Z,29.10
2023-05-05T11:28:19.603Z,29.00
2023-05-05T11:31:05.972Z,29.20
2023-05-05T11:33:35.047Z,29.30
2023-05-05T11:36:06.711Z,29.30
2023-05-05T11:38:42.355Z,29.20
2023-05-05T11:41:13.374Z,29.20
2023-05-05T11:43:41.844Z,29.40
2023-05-05T11:46:13.050Z,29.80
2023-05-05T11:48:47.329Z,30.00
2023-05-05T11:51:17.472Z,30.30
2023-05-05T11:53:46.164Z,30.50
2023-05-05T11:56:19.020Z,30.60
2023-05-05T11:58:47.306Z,30.50
2023-05-05T12:01:15.438Z,30.60
2023-05-05T12:03:45.440Z,30.60
2023-05-05T12:06:14.071Z,30.70
2023-05-05T12:08:43.423Z,30.40
2023-05-05T12:11:11.951Z,30.30
2023-05-05T12:13:40.117Z,30.50
2023-05-05T12:16:11.072Z,30.70
2023-05-05T12:18:39.269Z,30.90
2023-05-05T12:21:14.583Z,31.00
2023-05-05T12:23:43.891Z,30.70
2023-05-05T12:26:24.932Z,30.90
2023-05-05T12:28:52.952Z,31.00
2023-05-05T12:31:21.042Z,31.10
2023-05-05T12:33:51.744Z,31.10
2023-05-05T12:36:19.786Z,31.10
2023-05-05T12:38:49.051Z,31.10
2023-05-05T12:41:19.001Z,31.30
2023-05-05T12:43:47.454Z,31.30
2023-05-05T12:46:15.828Z,31.60
2023-05-05T12:48:47.178Z,31.70
2023-05-05T12:51:20.029Z,31.60
2023-05-05T12:53:50.434Z,31.60
2023-05-05T12:56:34.549Z,31.10
2023-05-05T12:59:02.979Z,31.00
2023-05-05T13:01:31.151Z,30.90
2023-05-05T13:04:05.515Z,30.90
2023-05-05T13:06:33.682Z,31.20
2023-05-05T13:09:03.285Z,31.60
2023-05-05T13:11:31.194Z,32.00
2023-05-05T13:13:59.107Z,31.80
2023-05-05T13:16:26.994Z,31.90
2023-05-05T13:18:55.553Z,31.90
2023-05-05T13:21:23.410Z,32.10
2023-05-05T13:23:51.422Z,32.20
2023-05-05T13:26:21.302Z,32.10
2023-05-05T13:28:49.220Z,32.10
2023-05-05T13:31:17.146Z,32.00
2023-05-05T13:33:45.085Z,32.10
2023-05-05T13:36:13.170Z,32.30
2023-05-05T13:38:41.140Z,32.50
2023-05-05T13:41:09.093Z,32.40
2023-05-05T13:43:38.290Z,32.30
2023-05-05T13:46:19.181Z,32.70
2023-05-05T13:48:48.257Z,32.70
2023-05-05T13:51:16.706Z,32.70
2023-05-05T13:53:45.117Z,32.80
2023-05-05T13:56:13.687Z,32.70
2023-05-05T13:58:43.390Z,32.50
2023-05-05T14:01:11.572Z,32.20
2023-05-05T14:03:40.350Z,31.90
2023-05-05T14:06:09.129Z,31.80
2023-05-05T14:08:37.058Z,31.40
2023-05-05T14:11:04.972Z,31.20
2023-05-05T14:13:32.884Z,31.10
2023-05-05T14:16:02.754Z,30.70
2023-05-05T14:18:30.674Z,30.40
2023-05-05T14:20:58.536Z,30.40
2023-05-05T14:23:26.483Z,30.50
2023-05-05T14:25:54.622Z,30.30
2023-05-05T14:28:22.725Z,30.10
2023-05-05T14:30:50.599Z,29.90
2023-05-05T14:33:19.804Z,29.80
2023-05-05T14:35:48.107Z,29.70
2023-05-05T14:38:16.018Z,29.80
2023-05-05T14:40:43.952Z,29.80
2023-05-05T14:43:11.863Z,29.80
2023-05-05T14:45:39.743Z,29.70
2023-05-05T14:48:07.709Z,29.60
2023-05-05T14:50:36.919Z,29.20
2023-05-05T14:53:04.805Z,29.20
2023-05-05T14:55:32.925Z,29.20
2023-05-05T14:58:00.828Z,29.00
2023-05-05T15:00:28.927Z,28.80
2023-05-05T15:02:56.894Z,28.60
2023-05-05T15:05:24.894Z,28.50
2023-05-05T15:07:54.191Z,28.30
2023-05-05T15:10:22.396Z,28.30
2023-05-05T15:12:51.072Z,28.20
2023-05-05T15:15:19.141Z,28.10
2023-05-05T15:17:47.047Z,28.00
2023-05-05T15:20:14.893Z,28.00
2023-05-05T15:22:42.788Z,27.90
2023-05-05T15:25:14.790Z,27.90
2023-05-05T15:27:42.775Z,27.90
2023-05-05T15:30:11.455Z,27.70
2023-05-05T15:32:39.329Z,27.60
2023-05-05T15:35:07.703Z,27.70
2023-05-05T15:37:36.451Z,27.50
2023-05-05T15:40:05.376Z,27.40
2023-05-05T15:42:34.660Z,27.10
2023-05-05T15:45:02.966Z,26.90
2023-05-05T15:47:30.893Z,26.80
2023-05-05T15:49:58.789Z,26.60
2023-05-05T15:52:26.724Z,26.40
2023-05-05T15:54:54.636Z,26.10
2023-05-05T15:57:22.641Z,25.70
2023-05-05T15:59:53.192Z,25.40
2023-05-05T16:02:21.241Z,25.10
2023-05-05T16:04:49.125Z,25.00
2023-05-05T16:07:17.050Z,25.00
2023-05-05T16:09:45.261Z,25.00
2023-05-05T16:12:13.111Z,24.70
2023-05-05T16:14:40.966Z,24.50
2023-05-05T16:17:10.271Z,24.50
2023-05-05T16:19:38.435Z,24.30
2023-05-05T16:22:06.482Z,24.20
2023-05-05T16:24:34.383Z,24.00
2023-05-05T16:27:02.610Z,23.90
2023-05-05T16:29:30.720Z,23.80
2023-05-05T16:31:58.775Z,23.60
2023-05-05T16:34:28.101Z,23.40
2023-05-05T16:36:56.070Z,23.20
2023-05-05T16:39:24.018Z,23.00
2023-05-05T16:41:51.984Z,22.80
2023-05-05T16:44:19.895Z,22.70
2023-05-05T16:46:47.883Z,22.60
2023-05-05T16:49:15.956Z,22.40
2023-05-05T16:51:45.177Z,22.30
2023-05-05T16:54:13.032Z,22.10
2023-05-05T16:56:40.905Z,22.00
2023-05-05T16:59:08.859Z,21.90
2023-05-05T17:01:36.788Z,21.80
2023-05-05T17:04:04.699Z,21.60
2023-05-05T17:06:33.071Z,21.50
2023-05-05T17:09:02.350Z,21.30
2023-05-05T17:11:30.263Z,21.20
2023-05-05T17:13:58.132Z,21.00
2023-05-05T17:16:26.006Z,20.90
2023-05-05T17:18:54.609Z,20.70
2023-05-05T17:21:22.453Z,20.60
2023-05-05T17:23:50.367Z,20.60
2023-05-05T17:26:19.569Z,20.40
2023-05-05T17:28:47.467Z,20.30
2023-05-05T17:31:15.414Z,20.10
2023-05-05T17:33:43.388Z,20.00
2023-05-05T17:36:11.397Z,19.90
2023-05-05T17:38:39.258Z,19.80
2023-05-05T17:43:36.733Z,19.60
2023-05-05T17:46:04.666Z,19.50
2023-05-05T17:48:32.634Z,19.40
2023-05-05T17:51:00.494Z,19.30
2023-05-05T17:53:28.390Z,19.20
2023-05-05T17:55:56.289Z,19.10
2023-05-05T17:58:24.356Z,19.00
2023-05-05T18:00:53.682Z,18.90
2023-05-05T18:03:21.566Z,18.80
2023-05-05T18:05:49.511Z,18.60
2023-05-05T18:08:17.353Z,18.60
2023-05-05T18:10:45.277Z,18.50
2023-05-05T18:13:13.146Z,18.30
2023-05-05T18:15:41.127Z,18.30
2023-05-05T18:18:10.459Z,18.10
2023-05-05T18:20:38.478Z,18.00
2023-05-05T18:23:06.394Z,17.90
2023-05-05T18:25:34.233Z,17.80
2023-05-05T18:28:02.180Z,17.70
2023-05-05T18:30:30.105Z,17.70
2023-05-05T18:32:58.097Z,17.60
2023-05-05T18:35:27.963Z,17.50
2023-05-05T18:37:56.275Z,17.50
2023-05-05T18:40:26.439Z,17.30
2023-05-05T18:42:54.259Z,17.30
2023-05-05T18:45:22.248Z,17.20
2023-05-05T18:47:50.186Z,17.20
2023-05-05T18:50:18.091Z,17.10
2023-05-05T18:52:47.376Z,17.10
2023-05-05T18:55:15.202Z,17.00
2023-05-05T18:57:43.051Z,17.00
2023-05-05T19:00:11.602Z,16.90
2023-05-05T19:02:39.451Z,16.80
2023-05-05T19:05:08.311Z,16.70
2023-05-05T19:07:36.760Z,16.60
2023-05-05T19:10:06.447Z,16.50
2023-05-05T19:12:34.335Z,16.50
2023-05-05T19:15:02.418Z,16.40
2023-05-05T19:17:30.299Z,16.30
2023-05-05T19:19:58.304Z,16.20
2023-05-05T19:22:26.198Z,16.20
2023-05-05T19:24:54.015Z,16.00
2023-05-05T19:27:23.277Z,16.00
2023-05-05T19:29:52.510Z,15.90
2023-05-05T19:32:21.759Z,15.80
2023-05-05T19:34:49.921Z,15.80
2023-05-05T19:37:17.812Z,15.70
2023-05-05T19:39:45.788Z,15.60
2023-05-05T19:42:13.659Z,15.50
2023-05-05T19:44:43.169Z,15.50
2023-05-05T19:47:11.279Z,15.40
2023-05-05T19:49:39.271Z,15.30
2023-05-05T19:52:07.154Z,15.20
2023-05-05T19:54:35.046Z,15.10
2023-05-05T19:57:02.976Z,15.00
2023-05-05T19:59:30.849Z,14.90
2023-05-05T20:02:00.174Z,14.90
2023-05-05T20:06:57.256Z,14.70
2023-05-05T20:09:25.173Z,14.70
2023-05-05T20:11:53.075Z,14.50
2023-05-05T20:14:20.970Z,14.50
2023-05-05T20:16:49.069Z,14.40
2023-05-05T20:19:18.973Z,14.30
2023-05-05T20:21:46.817Z,14.30
2023-05-05T20:24:14.693Z,14.20
2023-05-05T20:26:42.554Z,14.10
2023-05-05T20:29:10.434Z,14.10
2023-05-05T20:31:38.464Z,14.00
2023-05-05T20:34:06.578Z,13.90
2023-05-05T20:36:35.809Z,13.80
2023-05-05T20:39:03.672Z,13.70
2023-05-05T20:41:31.673Z,13.60
2023-05-05T20:43:59.586Z,13.60
2023-05-05T20:46:27.521Z,13.50
2023-05-05T20:48:55.606Z,13.40
2023-05-05T20:51:23.543Z,13.40
2023-05-05T20:53:52.825Z,13.30
2023-05-05T20:56:20.956Z,13.20
2023-05-05T20:58:48.791Z,13.20
2023-05-05T21:01:16.942Z,13.10
2023-05-05T21:03:44.871Z,13.00
2023-05-05T21:06:12.836Z,13.00
2023-05-05T21:08:40.785Z,12.90
2023-05-05T21:11:11.135Z,12.90
2023-05-05T21:13:39.100Z,12.90
2023-05-05T21:16:07.175Z,12.90
2023-05-05T21:18:35.121Z,12.90
2023-05-05T21:21:03.001Z,12.90
2023-05-05T21:23:31.077Z,12.90
2023-05-05T21:26:00.461Z,12.90
2023-05-05T21:28:29.835Z,12.90
2023-05-05T21:31:19.625Z,12.90
2023-05-05T21:33:46.184Z,12.90
2023-05-05T21:36:15.080Z,12.80
2023-05-05T21:38:42.912Z,12.80
2023-05-05T21:41:10.769Z,12.80
2023-05-05T21:43:40.017Z,12.80
2023-05-05T21:46:07.870Z,12.80
2023-05-05T21:48:38.666Z,12.80
2023-05-05T21:51:06.767Z,12.70
2023-05-05T21:53:34.654Z,12.70
2023-05-05T21:56:02.556Z,12.60
2023-05-05T21:58:30.394Z,12.60
2023-05-05T22:00:59.626Z,12.50
2023-05-05T22:03:27.672Z,12.40
2023-05-05T22:05:55.721Z,12.40
2023-05-05T22:08:23.633Z,12.30
2023-05-05T22:10:51.507Z,12.30
2023-05-05T22:13:19.474Z,12.30
2023-05-05T22:15:47.692Z,12.20
2023-05-05T22:18:17.176Z,12.30
2023-05-05T22:20:45.037Z,12.30
2023-05-05T22:23:14.002Z,12.30
2023-05-05T22:25:41.940Z,12.30
2023-05-05T22:28:09.810Z,12.30
2023-05-05T22:30:37.698Z,12.30
2023-05-05T22:33:05.623Z,12.30
2023-05-05T22:35:35.062Z,12.20
2023-05-05T22:38:02.912Z,12.20
2023-05-05T22:40:30.856Z,12.20
2023-05-05T22:42:58.689Z,12.20
2023-05-05T22:45:27.176Z,12.20
2023-05-05T22:47:55.501Z,12.20
2023-05-05T22:50:23.564Z,12.20
2023-05-05T22:52:52.774Z,12.20
2023-05-05T22:55:20.773Z,12.20
2023-05-05T22:57:49.843Z,12.20
2023-05-05T23:00:18.227Z,12.10
2023-05-05T23:02:47.496Z,12.10
2023-05-05T23:05:15.691Z,12.20
2023-05-05T23:07:43.529Z,12.10
2023-05-05T23:10:12.983Z,12.20
2023-05-05T23:12:40.850Z,12.10
2023-05-05T23:15:09.992Z,12.20
2023-05-05T23:17:38.191Z,12.20
2023-05-05T23:20:09.456Z,12.20
2023-05-05T23:22:37.288Z,12.20
2023-05-05T23:25:05.268Z,12.20
2023-05-05T23:27:34.458Z,12.20
2023-05-05T23:30:02.399Z,12.20
2023-05-05T23:32:30.285Z,12.20
2023-05-05T23:34:58.103Z,12.20
2023-05-05T23:37:25.973Z,12.20
2023-05-05T23:39:53.864Z,12.30
2023-05-05T23:42:21.702Z,12.30
2023-05-05T23:44:50.993Z,12.30
2023-05-05T23:47:18.840Z,12.30
2023-05-05T23:49:46.668Z,12.20
2023-05-05T23:52:14.532Z,12.20
2023-05-05T23:54:42.777Z,12.20
2023-05-05T23:57:10.982Z,12.10
2023-05-05T23:59:39.760Z,12.10
